sensor_id;sensor_type;location;lat;lon;timestamp;pressure;altitude;pressure_sealevel;temperature;humidity
74161;BME280;62512;-46.434;168.382;2022-09-09T00:00:36;103076;;;unknown;52.30
74161;BME280;62512;-46.434;168.382;2022-09-09T00:01:37;103077;;;unknown;52.87
74161;BME280;62512;-46.434;168.382;2022-09-09T00:02:36;103073;;;unknown;52.81
74161;BME280;62512;-46.434;168.382;2022-09-09T00:03:38;103074;;;unknown;52.74
74161;BME280;62512;-46.434;168.382;2022-09-09T00:04:36;103075;;;unknown;52.04
74161;BME280;62512;-46.434;168.382;2022-09-09T00:05:37;103079;;;unknown;52.36
74161;BME280;62512;-46.434;168.382;2022-09-09T00:06:42;103076;;;unknown;52.29
74161;BME280;62512;-46.434;168.382;2022-09-09T00:07:37;103076;;;unknown;52.40
74161;BME280;62512;-46.434;168.382;2022-09-09T00:08:38;103078;;;unknown;52.70
74161;BME280;62512;-46.434;168.382;2022-09-09T00:09:39;103079;;;unknown;53.18
74161;BME280;62512;-46.434;168.382;2022-09-09T00:10:37;103080;;;unknown;53.84
74161;BME280;62512;-46.434;168.382;2022-09-09T00:11:40;103081;;;unknown;54.34
74161;BME280;62512;-46.434;168.382;2022-09-09T00:12:38;103081;;;unknown;54.82
74161;BME280;62512;-46.434;168.382;2022-09-09T00:13:37;103073;;;unknown;54.97
74161;BME280;62512;-46.434;168.382;2022-09-09T00:14:37;103077;;;unknown;55.14
74161;BME280;62512;-46.434;168.382;2022-09-09T00:15:37;103078;;;unknown;55.59
74161;BME280;62512;-46.434;168.382;2022-09-09T00:17:36;103075;;;unknown;55.26
74161;BME280;62512;-46.434;168.382;2022-09-09T00:18:40;103074;;;unknown;55.35
74161;BME280;62512;-46.434;168.382;2022-09-09T00:19:37;103073;;;unknown;55.34
74161;BME280;62512;-46.434;168.382;2022-09-09T00:20:37;103077;;;unknown;55.51
74161;BME280;62512;-46.434;168.382;2022-09-09T00:21:36;103076;;;unknown;55.90
74161;BME280;62512;-46.434;168.382;2022-09-09T00:22:36;103080;;;unknown;56.23
74161;BME280;62512;-46.434;168.382;2022-09-09T00:23:37;103081;;;unknown;56.58
74161;BME280;62512;-46.434;168.382;2022-09-09T00:24:38;103081;;;unknown;56.83
74161;BME280;62512;-46.434;168.382;2022-09-09T00:25:37;103081;;;unknown;57.18
74161;BME280;62512;-46.434;168.382;2022-09-09T00:26:38;103081;;;unknown;57.14
74161;BME280;62512;-46.434;168.382;2022-09-09T00:27:37;103079;;;unknown;57.19
74161;BME280;62512;-46.434;168.382;2022-09-09T00:28:38;103077;;;unknown;57.20
74161;BME280;62512;-46.434;168.382;2022-09-09T00:29:38;103080;;;unknown;57.54
74161;BME280;62512;-46.434;168.382;2022-09-09T00:30:36;103077;;;unknown;57.58
74161;BME280;62512;-46.434;168.382;2022-09-09T00:31:36;103079;;;unknown;57.27
74161;BME280;62512;-46.434;168.382;2022-09-09T00:32:36;103079;;;unknown;56.93
74161;BME280;62512;-46.434;168.382;2022-09-09T00:33:36;103077;;;unknown;56.61
74161;BME280;62512;-46.434;168.382;2022-09-09T00:34:36;103076;;;unknown;56.64
74161;BME280;62512;-46.434;168.382;2022-09-09T00:35:36;103074;;;unknown;56.02
74161;BME280;62512;-46.434;168.382;2022-09-09T00:36:36;103073;;;unknown;55.97
74161;BME280;62512;-46.434;168.382;2022-09-09T00:37:36;103070;;;unknown;55.58
74161;BME280;62512;-46.434;168.382;2022-09-09T00:38:37;103067;;;unknown;55.13
74161;BME280;62512;-46.434;168.382;2022-09-09T00:39:37;103067;;;unknown;54.72
74161;BME280;62512;-46.434;168.382;2022-09-09T00:40:37;103067;;;unknown;53.41
74161;BME280;62512;-46.434;168.382;2022-09-09T00:41:42;103068;;;unknown;52.98
74161;BME280;62512;-46.434;168.382;2022-09-09T00:42:38;103066;;;unknown;53.48
74161;BME280;62512;-46.434;168.382;2022-09-09T00:43:36;103063;;;unknown;53.83
74161;BME280;62512;-46.434;168.382;2022-09-09T00:44:37;103063;;;unknown;53.83
74161;BME280;62512;-46.434;168.382;2022-09-09T00:45:43;103061;;;unknown;53.57
74161;BME280;62512;-46.434;168.382;2022-09-09T00:46:44;103061;;;unknown;53.27
74161;BME280;62512;-46.434;168.382;2022-09-09T00:47:39;103061;;;unknown;53.32
74161;BME280;62512;-46.434;168.382;2022-09-09T00:48:37;103057;;;unknown;53.38
74161;BME280;62512;-46.434;168.382;2022-09-09T00:49:38;103054;;;unknown;53.67
74161;BME280;62512;-46.434;168.382;2022-09-09T00:50:39;103056;;;unknown;53.70
74161;BME280;62512;-46.434;168.382;2022-09-09T00:51:38;103054;;;unknown;53.75
74161;BME280;62512;-46.434;168.382;2022-09-09T00:52:38;103053;;;unknown;54.04
74161;BME280;62512;-46.434;168.382;2022-09-09T00:53:37;103055;;;unknown;54.00
74161;BME280;62512;-46.434;168.382;2022-09-09T00:54:40;103052;;;unknown;54.09
74161;BME280;62512;-46.434;168.382;2022-09-09T00:55:38;103053;;;unknown;54.45
74161;BME280;62512;-46.434;168.382;2022-09-09T00:56:36;103053;;;unknown;54.45
74161;BME280;62512;-46.434;168.382;2022-09-09T00:57:36;103051;;;unknown;53.89
74161;BME280;62512;-46.434;168.382;2022-09-09T00:58:36;103051;;;unknown;53.44
74161;BME280;62512;-46.434;168.382;2022-09-09T00:59:39;103049;;;unknown;53.46
74161;BME280;62512;-46.434;168.382;2022-09-09T01:00:37;103047;;;unknown;53.54
74161;BME280;62512;-46.434;168.382;2022-09-09T01:01:36;103045;;;unknown;54.16
74161;BME280;62512;-46.434;168.382;2022-09-09T01:02:37;103045;;;unknown;54.45
74161;BME280;62512;-46.434;168.382;2022-09-09T01:03:37;103047;;;unknown;54.51
74161;BME280;62512;-46.434;168.382;2022-09-09T01:04:36;103044;;;unknown;54.22
74161;BME280;62512;-46.434;168.382;2022-09-09T01:05:37;103041;;;unknown;54.08
74161;BME280;62512;-46.434;168.382;2022-09-09T01:06:36;103039;;;unknown;53.83
74161;BME280;62512;-46.434;168.382;2022-09-09T01:07:36;103041;;;unknown;53.71
74161;BME280;62512;-46.434;168.382;2022-09-09T01:08:41;103036;;;unknown;53.66
74161;BME280;62512;-46.434;168.382;2022-09-09T01:09:41;103036;;;unknown;53.75
74161;BME280;62512;-46.434;168.382;2022-09-09T01:10:38;103035;;;unknown;53.99
74161;BME280;62512;-46.434;168.382;2022-09-09T01:12:38;103028;;;unknown;53.44
74161;BME280;62512;-46.434;168.382;2022-09-09T01:13:36;103028;;;unknown;53.10
74161;BME280;62512;-46.434;168.382;2022-09-09T01:14:40;103028;;;unknown;53.10
74161;BME280;62512;-46.434;168.382;2022-09-09T01:15:36;103027;;;unknown;53.12
74161;BME280;62512;-46.434;168.382;2022-09-09T01:17:37;103025;;;unknown;53.05
74161;BME280;62512;-46.434;168.382;2022-09-09T01:18:36;103023;;;unknown;53.01
74161;BME280;62512;-46.434;168.382;2022-09-09T01:19:40;103023;;;unknown;53.01
74161;BME280;62512;-46.434;168.382;2022-09-09T01:20:37;103025;;;unknown;53.31
74161;BME280;62512;-46.434;168.382;2022-09-09T01:21:38;103025;;;unknown;52.88
74161;BME280;62512;-46.434;168.382;2022-09-09T01:22:36;103021;;;unknown;53.33
74161;BME280;62512;-46.434;168.382;2022-09-09T01:24:37;103015;;;unknown;53.59
74161;BME280;62512;-46.434;168.382;2022-09-09T01:26:36;103017;;;unknown;53.14
74161;BME280;62512;-46.434;168.382;2022-09-09T01:27:36;103018;;;unknown;52.71
74161;BME280;62512;-46.434;168.382;2022-09-09T01:28:36;103015;;;unknown;52.87
74161;BME280;62512;-46.434;168.382;2022-09-09T01:29:36;103012;;;unknown;52.95
74161;BME280;62512;-46.434;168.382;2022-09-09T01:30:37;103012;;;unknown;53.01
74161;BME280;62512;-46.434;168.382;2022-09-09T01:31:37;103006;;;unknown;53.58
74161;BME280;62512;-46.434;168.382;2022-09-09T01:32:38;103006;;;unknown;52.83
74161;BME280;62512;-46.434;168.382;2022-09-09T01:33:36;103004;;;unknown;53.17
74161;BME280;62512;-46.434;168.382;2022-09-09T01:34:36;103005;;;unknown;53.12
74161;BME280;62512;-46.434;168.382;2022-09-09T01:35:39;103001;;;unknown;52.14
74161;BME280;62512;-46.434;168.382;2022-09-09T01:36:37;103001;;;unknown;51.32
74161;BME280;62512;-46.434;168.382;2022-09-09T01:37:36;102998;;;unknown;51.10
74161;BME280;62512;-46.434;168.382;2022-09-09T01:38:36;103000;;;unknown;51.35
74161;BME280;62512;-46.434;168.382;2022-09-09T01:39:36;103001;;;unknown;51.21
74161;BME280;62512;-46.434;168.382;2022-09-09T01:40:36;102996;;;unknown;51.30
74161;BME280;62512;-46.434;168.382;2022-09-09T01:41:36;102995;;;unknown;51.82
74161;BME280;62512;-46.434;168.382;2022-09-09T01:42:36;102995;;;unknown;51.67
74161;BME280;62512;-46.434;168.382;2022-09-09T01:43:36;102990;;;unknown;51.96
74161;BME280;62512;-46.434;168.382;2022-09-09T01:44:36;102992;;;unknown;51.76
74161;BME280;62512;-46.434;168.382;2022-09-09T01:45:36;102987;;;unknown;51.18
74161;BME280;62512;-46.434;168.382;2022-09-09T01:47:36;102987;;;unknown;50.81
74161;BME280;62512;-46.434;168.382;2022-09-09T01:48:36;102984;;;unknown;51.11
74161;BME280;62512;-46.434;168.382;2022-09-09T01:49:36;102983;;;unknown;50.41
74161;BME280;62512;-46.434;168.382;2022-09-09T01:50:36;102982;;;unknown;50.45
74161;BME280;62512;-46.434;168.382;2022-09-09T01:51:36;102984;;;unknown;50.45
74161;BME280;62512;-46.434;168.382;2022-09-09T01:52:36;102977;;;unknown;49.65
74161;BME280;62512;-46.434;168.382;2022-09-09T01:53:36;102977;;;unknown;49.07
74161;BME280;62512;-46.434;168.382;2022-09-09T01:54:36;102975;;;unknown;48.49
74161;BME280;62512;-46.434;168.382;2022-09-09T01:55:37;102978;;;unknown;50.29
74161;BME280;62512;-46.434;168.382;2022-09-09T01:56:38;102978;;;unknown;50.29
74161;BME280;62512;-46.434;168.382;2022-09-09T01:57:37;102974;;;unknown;51.04
74161;BME280;62512;-46.434;168.382;2022-09-09T01:58:40;102973;;;unknown;51.28
74161;BME280;62512;-46.434;168.382;2022-09-09T01:59:47;102975;;;unknown;51.20
74161;BME280;62512;-46.434;168.382;2022-09-09T02:00:36;102974;;;unknown;50.95
74161;BME280;62512;-46.434;168.382;2022-09-09T02:01:39;102974;;;unknown;50.99
74161;BME280;62512;-46.434;168.382;2022-09-09T02:02:36;102969;;;unknown;51.46
74161;BME280;62512;-46.434;168.382;2022-09-09T02:03:36;102971;;;unknown;52.40
74161;BME280;62512;-46.434;168.382;2022-09-09T02:04:38;102971;;;unknown;52.70
74161;BME280;62512;-46.434;168.382;2022-09-09T02:05:36;102967;;;unknown;52.62
74161;BME280;62512;-46.434;168.382;2022-09-09T02:06:36;102971;;;unknown;53.05
74161;BME280;62512;-46.434;168.382;2022-09-09T02:07:38;102972;;;unknown;53.45
74161;BME280;62512;-46.434;168.382;2022-09-09T02:08:39;102969;;;unknown;53.92
74161;BME280;62512;-46.434;168.382;2022-09-09T02:09:36;102970;;;unknown;54.54
74161;BME280;62512;-46.434;168.382;2022-09-09T02:10:37;102965;;;unknown;54.72
74161;BME280;62512;-46.434;168.382;2022-09-09T02:11:36;102965;;;unknown;54.79
74161;BME280;62512;-46.434;168.382;2022-09-09T02:12:36;102962;;;unknown;55.22
74161;BME280;62512;-46.434;168.382;2022-09-09T02:13:36;102965;;;unknown;55.03
74161;BME280;62512;-46.434;168.382;2022-09-09T02:14:36;102962;;;unknown;55.04
74161;BME280;62512;-46.434;168.382;2022-09-09T02:15:38;102961;;;unknown;55.34
74161;BME280;62512;-46.434;168.382;2022-09-09T02:16:37;102961;;;unknown;55.34
74161;BME280;62512;-46.434;168.382;2022-09-09T02:18:38;102958;;;unknown;55.01
74161;BME280;62512;-46.434;168.382;2022-09-09T02:23:36;102956;;;unknown;54.78
74161;BME280;62512;-46.434;168.382;2022-09-09T02:24:36;102954;;;unknown;54.88
74161;BME280;62512;-46.434;168.382;2022-09-09T02:25:36;102953;;;unknown;55.17
74161;BME280;62512;-46.434;168.382;2022-09-09T02:26:37;102953;;;unknown;55.43
74161;BME280;62512;-46.434;168.382;2022-09-09T02:28:36;102949;;;unknown;55.06
74161;BME280;62512;-46.434;168.382;2022-09-09T02:29:36;102951;;;unknown;54.77
74161;BME280;62512;-46.434;168.382;2022-09-09T02:30:36;102949;;;unknown;53.98
74161;BME280;62512;-46.434;168.382;2022-09-09T02:31:36;102945;;;unknown;54.27
74161;BME280;62512;-46.434;168.382;2022-09-09T02:32:36;102941;;;unknown;54.76
74161;BME280;62512;-46.434;168.382;2022-09-09T02:33:37;102943;;;unknown;54.39
74161;BME280;62512;-46.434;168.382;2022-09-09T02:34:37;102940;;;unknown;54.29
74161;BME280;62512;-46.434;168.382;2022-09-09T02:35:36;102941;;;unknown;53.93
74161;BME280;62512;-46.434;168.382;2022-09-09T02:36:36;102939;;;unknown;53.68
74161;BME280;62512;-46.434;168.382;2022-09-09T02:37:38;102937;;;unknown;53.55
74161;BME280;62512;-46.434;168.382;2022-09-09T02:38:37;102940;;;unknown;53.50
74161;BME280;62512;-46.434;168.382;2022-09-09T02:39:36;102941;;;unknown;53.51
74161;BME280;62512;-46.434;168.382;2022-09-09T02:40:36;102940;;;unknown;53.79
74161;BME280;62512;-46.434;168.382;2022-09-09T02:41:37;102941;;;unknown;53.30
74161;BME280;62512;-46.434;168.382;2022-09-09T02:42:38;102938;;;unknown;53.22
74161;BME280;62512;-46.434;168.382;2022-09-09T02:43:36;102937;;;unknown;53.50
74161;BME280;62512;-46.434;168.382;2022-09-09T02:44:36;102937;;;unknown;53.60
74161;BME280;62512;-46.434;168.382;2022-09-09T02:45:38;102940;;;unknown;53.86
74161;BME280;62512;-46.434;168.382;2022-09-09T02:46:38;102939;;;unknown;54.24
74161;BME280;62512;-46.434;168.382;2022-09-09T02:47:37;102936;;;unknown;52.93
74161;BME280;62512;-46.434;168.382;2022-09-09T02:48:38;102936;;;unknown;52.93
74161;BME280;62512;-46.434;168.382;2022-09-09T02:49:39;102936;;;unknown;52.42
74161;BME280;62512;-46.434;168.382;2022-09-09T02:50:37;102938;;;unknown;51.72
74161;BME280;62512;-46.434;168.382;2022-09-09T02:51:37;102937;;;unknown;51.88
74161;BME280;62512;-46.434;168.382;2022-09-09T02:52:38;102938;;;unknown;52.34
74161;BME280;62512;-46.434;168.382;2022-09-09T02:53:38;102935;;;unknown;52.68
74161;BME280;62512;-46.434;168.382;2022-09-09T02:54:37;102935;;;unknown;52.03
74161;BME280;62512;-46.434;168.382;2022-09-09T02:55:38;102934;;;unknown;52.34
74161;BME280;62512;-46.434;168.382;2022-09-09T02:57:36;102935;;;unknown;53.18
74161;BME280;62512;-46.434;168.382;2022-09-09T02:58:36;102932;;;unknown;53.44
74161;BME280;62512;-46.434;168.382;2022-09-09T02:59:36;102932;;;unknown;53.44
74161;BME280;62512;-46.434;168.382;2022-09-09T03:00:36;102930;;;unknown;53.19
74161;BME280;62512;-46.434;168.382;2022-09-09T03:01:36;102930;;;unknown;53.19
74161;BME280;62512;-46.434;168.382;2022-09-09T03:02:36;102930;;;unknown;53.53
74161;BME280;62512;-46.434;168.382;2022-09-09T03:03:36;102929;;;unknown;53.15
74161;BME280;62512;-46.434;168.382;2022-09-09T03:04:36;102932;;;unknown;53.27
74161;BME280;62512;-46.434;168.382;2022-09-09T03:05:36;102931;;;unknown;52.71
74161;BME280;62512;-46.434;168.382;2022-09-09T03:06:36;102928;;;unknown;52.44
74161;BME280;62512;-46.434;168.382;2022-09-09T03:07:36;102927;;;unknown;52.92
74161;BME280;62512;-46.434;168.382;2022-09-09T03:08:36;102925;;;unknown;53.36
74161;BME280;62512;-46.434;168.382;2022-09-09T03:09:36;102923;;;unknown;52.90
74161;BME280;62512;-46.434;168.382;2022-09-09T03:10:36;102921;;;unknown;53.05
74161;BME280;62512;-46.434;168.382;2022-09-09T03:11:36;102921;;;unknown;53.45
74161;BME280;62512;-46.434;168.382;2022-09-09T03:12:36;102925;;;unknown;54.09
74161;BME280;62512;-46.434;168.382;2022-09-09T03:13:36;102925;;;unknown;54.10
74161;BME280;62512;-46.434;168.382;2022-09-09T03:14:36;102921;;;unknown;53.94
74161;BME280;62512;-46.434;168.382;2022-09-09T03:15:36;102925;;;unknown;53.71
74161;BME280;62512;-46.434;168.382;2022-09-09T03:16:36;102926;;;unknown;53.97
74161;BME280;62512;-46.434;168.382;2022-09-09T03:17:36;102925;;;unknown;54.10
74161;BME280;62512;-46.434;168.382;2022-09-09T03:18:36;102925;;;unknown;54.34
74161;BME280;62512;-46.434;168.382;2022-09-09T03:19:36;102928;;;unknown;54.35
74161;BME280;62512;-46.434;168.382;2022-09-09T03:20:36;102926;;;unknown;54.38
74161;BME280;62512;-46.434;168.382;2022-09-09T03:21:36;102924;;;unknown;54.24
74161;BME280;62512;-46.434;168.382;2022-09-09T03:22:36;102921;;;unknown;53.79
74161;BME280;62512;-46.434;168.382;2022-09-09T03:23:36;102926;;;unknown;53.63
74161;BME280;62512;-46.434;168.382;2022-09-09T03:24:36;102923;;;unknown;53.14
74161;BME280;62512;-46.434;168.382;2022-09-09T03:25:35;102925;;;unknown;53.50
74161;BME280;62512;-46.434;168.382;2022-09-09T03:26:36;102924;;;unknown;52.79
74161;BME280;62512;-46.434;168.382;2022-09-09T03:27:35;102923;;;unknown;52.93
74161;BME280;62512;-46.434;168.382;2022-09-09T03:28:36;102920;;;unknown;52.72
74161;BME280;62512;-46.434;168.382;2022-09-09T03:29:36;102919;;;unknown;52.83
74161;BME280;62512;-46.434;168.382;2022-09-09T03:30:36;102920;;;unknown;52.98
74161;BME280;62512;-46.434;168.382;2022-09-09T03:31:36;102920;;;unknown;53.16
74161;BME280;62512;-46.434;168.382;2022-09-09T03:32:36;102921;;;unknown;53.30
74161;BME280;62512;-46.434;168.382;2022-09-09T03:33:36;102924;;;unknown;53.30
74161;BME280;62512;-46.434;168.382;2022-09-09T03:34:36;102920;;;unknown;53.36
74161;BME280;62512;-46.434;168.382;2022-09-09T03:35:36;102924;;;unknown;53.71
74161;BME280;62512;-46.434;168.382;2022-09-09T03:36:36;102923;;;unknown;53.68
74161;BME280;62512;-46.434;168.382;2022-09-09T03:38:36;102927;;;unknown;52.90
74161;BME280;62512;-46.434;168.382;2022-09-09T03:39:36;102925;;;unknown;53.20
74161;BME280;62512;-46.434;168.382;2022-09-09T03:40:36;102925;;;unknown;53.20
74161;BME280;62512;-46.434;168.382;2022-09-09T03:41:36;102921;;;unknown;53.28
74161;BME280;62512;-46.434;168.382;2022-09-09T03:42:36;102926;;;unknown;53.65
74161;BME280;62512;-46.434;168.382;2022-09-09T03:43:36;102922;;;unknown;53.88
74161;BME280;62512;-46.434;168.382;2022-09-09T03:44:37;102924;;;unknown;54.09
74161;BME280;62512;-46.434;168.382;2022-09-09T03:45:35;102918;;;unknown;53.55
74161;BME280;62512;-46.434;168.382;2022-09-09T03:46:35;102921;;;unknown;53.49
74161;BME280;62512;-46.434;168.382;2022-09-09T03:47:36;102925;;;unknown;53.41
74161;BME280;62512;-46.434;168.382;2022-09-09T03:48:36;102928;;;unknown;53.49
74161;BME280;62512;-46.434;168.382;2022-09-09T03:49:35;102926;;;unknown;53.74
74161;BME280;62512;-46.434;168.382;2022-09-09T03:51:36;102932;;;unknown;53.74
74161;BME280;62512;-46.434;168.382;2022-09-09T03:52:36;102932;;;unknown;53.74
74161;BME280;62512;-46.434;168.382;2022-09-09T03:53:36;102932;;;unknown;53.97
74161;BME280;62512;-46.434;168.382;2022-09-09T03:54:36;102932;;;unknown;53.97
74161;BME280;62512;-46.434;168.382;2022-09-09T03:55:36;102929;;;unknown;54.09
74161;BME280;62512;-46.434;168.382;2022-09-09T03:57:36;102928;;;unknown;54.36
74161;BME280;62512;-46.434;168.382;2022-09-09T04:00:35;102930;;;unknown;54.47
74161;BME280;62512;-46.434;168.382;2022-09-09T04:01:35;102931;;;unknown;54.40
74161;BME280;62512;-46.434;168.382;2022-09-09T04:02:36;102929;;;unknown;54.19
74161;BME280;62512;-46.434;168.382;2022-09-09T04:04:35;102928;;;unknown;54.81
74161;BME280;62512;-46.434;168.382;2022-09-09T04:05:36;102927;;;unknown;54.48
74161;BME280;62512;-46.434;168.382;2022-09-09T04:06:35;102931;;;unknown;54.51
74161;BME280;62512;-46.434;168.382;2022-09-09T04:08:36;102927;;;unknown;54.66
74161;BME280;62512;-46.434;168.382;2022-09-09T04:09:35;102928;;;unknown;54.80
74161;BME280;62512;-46.434;168.382;2022-09-09T04:10:35;102931;;;unknown;55.10
74161;BME280;62512;-46.434;168.382;2022-09-09T04:11:36;102925;;;unknown;54.96
74161;BME280;62512;-46.434;168.382;2022-09-09T04:12:35;102929;;;unknown;54.64
74161;BME280;62512;-46.434;168.382;2022-09-09T04:13:36;102928;;;unknown;54.17
74161;BME280;62512;-46.434;168.382;2022-09-09T04:14:35;102928;;;unknown;54.15
74161;BME280;62512;-46.434;168.382;2022-09-09T04:15:35;102930;;;unknown;54.10
74161;BME280;62512;-46.434;168.382;2022-09-09T04:16:35;102931;;;unknown;54.18
74161;BME280;62512;-46.434;168.382;2022-09-09T04:17:35;102930;;;unknown;54.19
74161;BME280;62512;-46.434;168.382;2022-09-09T04:18:35;102927;;;unknown;54.29
74161;BME280;62512;-46.434;168.382;2022-09-09T04:19:35;102929;;;unknown;54.14
74161;BME280;62512;-46.434;168.382;2022-09-09T04:20:35;102927;;;unknown;54.02
74161;BME280;62512;-46.434;168.382;2022-09-09T04:21:35;102927;;;unknown;53.94
74161;BME280;62512;-46.434;168.382;2022-09-09T04:22:35;102927;;;unknown;53.87
74161;BME280;62512;-46.434;168.382;2022-09-09T04:23:35;102928;;;unknown;53.88
74161;BME280;62512;-46.434;168.382;2022-09-09T04:26:35;102934;;;unknown;53.65
74161;BME280;62512;-46.434;168.382;2022-09-09T04:27:35;102934;;;unknown;53.57
74161;BME280;62512;-46.434;168.382;2022-09-09T04:28:36;102933;;;unknown;53.52
74161;BME280;62512;-46.434;168.382;2022-09-09T04:29:35;102935;;;unknown;53.66
74161;BME280;62512;-46.434;168.382;2022-09-09T04:30:35;102932;;;unknown;53.71
74161;BME280;62512;-46.434;168.382;2022-09-09T04:31:35;102929;;;unknown;53.82
74161;BME280;62512;-46.434;168.382;2022-09-09T04:32:35;102931;;;unknown;53.96
74161;BME280;62512;-46.434;168.382;2022-09-09T04:33:35;102927;;;unknown;53.99
74161;BME280;62512;-46.434;168.382;2022-09-09T04:34:35;102931;;;unknown;54.01
74161;BME280;62512;-46.434;168.382;2022-09-09T04:35:36;102925;;;unknown;53.82
74161;BME280;62512;-46.434;168.382;2022-09-09T04:37:35;102925;;;unknown;53.82
74161;BME280;62512;-46.434;168.382;2022-09-09T04:38:35;102920;;;unknown;53.73
74161;BME280;62512;-46.434;168.382;2022-09-09T04:39:35;102921;;;unknown;53.56
74161;BME280;62512;-46.434;168.382;2022-09-09T04:40:35;102920;;;unknown;53.47
74161;BME280;62512;-46.434;168.382;2022-09-09T04:41:35;102921;;;unknown;53.47
74161;BME280;62512;-46.434;168.382;2022-09-09T04:42:35;102920;;;unknown;53.64
74161;BME280;62512;-46.434;168.382;2022-09-09T04:43:35;102922;;;unknown;53.69
74161;BME280;62512;-46.434;168.382;2022-09-09T04:45:35;102919;;;unknown;53.71
74161;BME280;62512;-46.434;168.382;2022-09-09T04:46:35;102918;;;unknown;53.67
74161;BME280;62512;-46.434;168.382;2022-09-09T04:47:35;102917;;;unknown;53.65
74161;BME280;62512;-46.434;168.382;2022-09-09T04:48:35;102919;;;unknown;53.73
74161;BME280;62512;-46.434;168.382;2022-09-09T04:49:36;102920;;;unknown;53.53
74161;BME280;62512;-46.434;168.382;2022-09-09T04:50:35;102918;;;unknown;53.53
74161;BME280;62512;-46.434;168.382;2022-09-09T04:51:35;102913;;;unknown;53.68
74161;BME280;62512;-46.434;168.382;2022-09-09T04:54:35;102912;;;unknown;53.98
74161;BME280;62512;-46.434;168.382;2022-09-09T04:56:35;102916;;;unknown;54.11
74161;BME280;62512;-46.434;168.382;2022-09-09T04:57:35;102916;;;unknown;54.04
74161;BME280;62512;-46.434;168.382;2022-09-09T04:58:35;102917;;;unknown;54.12
74161;BME280;62512;-46.434;168.382;2022-09-09T04:59:35;102918;;;unknown;54.37
74161;BME280;62512;-46.434;168.382;2022-09-09T05:00:35;102918;;;unknown;54.45
74161;BME280;62512;-46.434;168.382;2022-09-09T05:01:35;102915;;;unknown;54.43
74161;BME280;62512;-46.434;168.382;2022-09-09T05:02:37;102917;;;unknown;54.44
74161;BME280;62512;-46.434;168.382;2022-09-09T05:03:36;102915;;;unknown;54.48
74161;BME280;62512;-46.434;168.382;2022-09-09T05:04:35;102918;;;unknown;54.63
74161;BME280;62512;-46.434;168.382;2022-09-09T05:05:35;102914;;;unknown;54.86
74161;BME280;62512;-46.434;168.382;2022-09-09T05:06:35;102920;;;unknown;54.97
74161;BME280;62512;-46.434;168.382;2022-09-09T05:07:35;102917;;;unknown;55.07
74161;BME280;62512;-46.434;168.382;2022-09-09T05:08:36;102917;;;unknown;55.08
74161;BME280;62512;-46.434;168.382;2022-09-09T05:09:36;102915;;;unknown;55.23
74161;BME280;62512;-46.434;168.382;2022-09-09T05:10:36;102915;;;unknown;55.23
74161;BME280;62512;-46.434;168.382;2022-09-09T05:11:35;102918;;;unknown;55.24
74161;BME280;62512;-46.434;168.382;2022-09-09T05:13:35;102917;;;unknown;55.32
74161;BME280;62512;-46.434;168.382;2022-09-09T05:14:35;102917;;;unknown;55.45
74161;BME280;62512;-46.434;168.382;2022-09-09T05:15:35;102915;;;unknown;55.57
74161;BME280;62512;-46.434;168.382;2022-09-09T05:16:35;102913;;;unknown;55.51
74161;BME280;62512;-46.434;168.382;2022-09-09T05:18:35;102908;;;unknown;55.79
74161;BME280;62512;-46.434;168.382;2022-09-09T05:19:36;102913;;;unknown;55.74
74161;BME280;62512;-46.434;168.382;2022-09-09T05:20:36;102907;;;unknown;55.67
74161;BME280;62512;-46.434;168.382;2022-09-09T05:21:36;102912;;;unknown;55.64
74161;BME280;62512;-46.434;168.382;2022-09-09T05:22:36;102912;;;unknown;55.64
74161;BME280;62512;-46.434;168.382;2022-09-09T05:23:36;102913;;;unknown;55.95
74161;BME280;62512;-46.434;168.382;2022-09-09T05:24:36;102913;;;unknown;55.95
74161;BME280;62512;-46.434;168.382;2022-09-09T05:25:36;102912;;;unknown;56.17
74161;BME280;62512;-46.434;168.382;2022-09-09T05:26:36;102914;;;unknown;56.31
74161;BME280;62512;-46.434;168.382;2022-09-09T05:27:36;102912;;;unknown;56.76
74161;BME280;62512;-46.434;168.382;2022-09-09T05:28:36;102912;;;unknown;56.76
74161;BME280;62512;-46.434;168.382;2022-09-09T05:29:36;102910;;;unknown;56.75
74161;BME280;62512;-46.434;168.382;2022-09-09T05:30:36;102913;;;unknown;56.77
74161;BME280;62512;-46.434;168.382;2022-09-09T05:31:36;102917;;;unknown;56.85
74161;BME280;62512;-46.434;168.382;2022-09-09T05:32:36;102920;;;unknown;57.05
74161;BME280;62512;-46.434;168.382;2022-09-09T05:33:36;102919;;;unknown;57.35
74161;BME280;62512;-46.434;168.382;2022-09-09T05:34:36;102921;;;unknown;57.71